Time;durP1;ratioP1;P1;durP2;ratioP2;P2;SDS_P1;SDS_P2;PMS_P1;PMS_P2;Temp;Humidity;BMP_temperature;BMP_pressure;BME280_temperature;BME280_humidity;BME280_pressure;Samples;Min_cycle;Max_cycle;Signal;HPM_P1;HPM_P2
2023/07/09 13:19:10;;;;;;;3.40;1.45;;;;;;;31.31;30.77;101190.09;5206976;56;97497;-66
2023/07/09 13:24:29;;;;;;;1.55;1.45;;;;;;;31.07;30.46;101190.59;4956801;56;1134572;-65
2023/07/09 13:29:35;;;;;;;7.75;1.62;;;;;;;31.14;29.67;101183.14;5032809;55;1138649;-66
2023/07/09 13:34:42;;;;;;;1.32;1.32;;;;;;;31.13;29.23;101177.92;5075546;55;1138879;-66
2023/07/09 13:39:48;;;;;;;1.50;1.40;;;;;;;31.27;30.17;101176.59;5069142;55;1138975;-67
2023/07/09 13:44:55;;;;;;;1.42;1.32;;;;;;;31.37;29.35;101178.17;5001237;55;1139012;-65
2023/07/09 13:50:01;;;;;;;1.90;1.53;;;;;;;31.38;28.28;101175.73;5005228;57;1138729;-68
2023/07/09 13:55:11;;;;;;;1.60;1.50;;;;;;;31.35;27.80;101170.74;4966118;57;1138944;-65
2023/07/09 14:00:17;;;;;;;1.50;1.40;;;;;;;31.24;26.92;101164.23;5004578;56;1138876;-65
2023/07/09 14:05:23;;;;;;;1.15;1.15;;;;;;;31.25;26.69;101154.12;5070523;56;1138947;-64
2023/07/09 14:10:29;;;;;;;1.62;1.10;;;;;;;31.34;26.69;101151.31;5032403;57;1138812;-64
2023/07/09 14:15:34;;;;;;;1.10;1.10;;;;;;;31.45;29.20;101149.11;5020040;56;1139160;-64
2023/07/09 14:20:40;;;;;;;1.35;1.25;;;;;;;31.46;28.09;101148.87;5050445;56;1138866;-63
2023/07/09 14:25:47;;;;;;;1.10;1.10;;;;;;;31.49;28.62;101140.70;5038572;57;1138449;-63
2023/07/09 14:30:52;;;;;;;3.80;1.37;;;;;;;31.56;27.77;101143.30;5078068;57;1138953;-65
2023/07/09 14:35:58;;;;;;;1.22;0.98;;;;;;;31.65;27.53;101138.59;5000111;55;1139184;-65
2023/07/09 14:41:18;;;;;;;1.85;0.80;;;;;;;31.61;25.44;101139.31;5014149;55;1138685;-66
2023/07/09 14:46:24;;;;;;;2.92;1.07;;;;;;;31.60;26.82;101134.38;5001935;55;1138934;-64
2023/07/09 14:51:31;;;;;;;0.88;0.82;;;;;;;31.70;28.95;101133.23;4992808;55;1139064;-63
2023/07/09 14:56:36;;;;;;;0.95;0.93;;;;;;;31.74;27.36;101131.69;5026314;55;1138859;-66
2023/07/09 15:01:42;;;;;;;1.12;1.10;;;;;;;31.84;27.51;101122.83;5034692;55;1138673;-65
2023/07/09 15:06:51;;;;;;;1.30;1.00;;;;;;;31.89;27.72;101134.42;5011982;56;1139361;-66
2023/07/09 15:11:59;;;;;;;1.30;1.20;;;;;;;31.83;28.32;101130.74;5009240;55;1138837;-64
2023/07/09 15:17:05;;;;;;;0.90;0.90;;;;;;;31.77;27.05;101127.64;5010060;55;1138697;-65
2023/07/09 15:22:21;;;;;;;1.37;0.93;;;;;;;31.85;28.40;101131.34;5009690;55;1138684;-65
2023/07/09 15:27:27;;;;;;;1.57;1.47;;;;;;;31.87;26.90;101123.72;5008193;56;1138884;-64
2023/07/09 15:32:33;;;;;;;1.22;1.05;;;;;;;31.86;27.26;101119.86;5027895;56;1138823;-64
2023/07/09 15:37:38;;;;;;;1.00;1.00;;;;;;;32.02;28.50;101116.33;5028617;56;1139035;-66
2023/07/09 15:42:44;;;;;;;2.58;1.12;;;;;;;31.98;27.07;101118.72;5047888;57;1139044;-64
2023/07/09 15:47:52;;;;;;;3.67;1.17;;;;;;;31.91;26.14;101109.84;5068563;57;1139091;-65
2023/07/09 15:52:58;;;;;;;2.45;1.07;;;;;;;31.84;26.59;101105.59;5043586;56;1138719;-65
2023/07/09 15:58:04;;;;;;;1.17;0.90;;;;;;;31.76;26.64;101104.09;5049859;56;1138971;-65
2023/07/09 16:03:11;;;;;;;2.05;1.37;;;;;;;31.71;26.87;101097.98;5049862;56;1139033;-65
2023/07/09 16:08:17;;;;;;;0.90;0.90;;;;;;;31.73;27.72;101092.27;5069357;56;1138638;-65
2023/07/09 16:13:25;;;;;;;1.00;1.00;;;;;;;31.77;28.30;101095.64;5048647;56;1138731;-66
2023/07/09 16:18:31;;;;;;;0.90;0.90;;;;;;;31.65;28.15;101092.11;5049455;55;1138927;-63
2023/07/09 16:23:37;;;;;;;2.50;0.90;;;;;;;31.69;28.44;101091.92;5059128;55;1138801;-65
2023/07/09 16:28:42;;;;;;;2.20;0.95;;;;;;;31.60;27.76;101082.42;5036726;56;1138625;-65
2023/07/09 16:33:48;;;;;;;1.25;1.25;;;;;;;31.48;25.79;101086.55;5035993;56;1138893;-65
2023/07/09 16:38:54;;;;;;;0.96;0.96;;;;;;;31.37;26.38;101072.92;5055643;57;1138879;-64
2023/07/09 16:44:00;;;;;;;2.20;1.70;;;;;;;31.43;26.66;101082.91;5035636;57;1138839;-65
2023/07/09 16:49:10;;;;;;;6.17;2.50;;;;;;;31.36;28.44;101078.09;5036035;57;1139115;-65
2023/07/09 16:54:16;;;;;;;1.40;0.80;;;;;;;31.43;28.83;101085.09;5029189;57;1138689;-65
2023/07/09 16:59:22;;;;;;;1.52;1.02;;;;;;;31.29;27.76;101067.31;5055523;57;1138917;-66
2023/07/09 17:04:30;;;;;;;2.67;1.52;;;;;;;31.32;28.56;101070.11;5035834;57;1138782;-64
2023/07/09 17:09:35;;;;;;;3.47;1.22;;;;;;;31.27;29.06;101065.36;5035636;57;1138893;-64
2023/07/09 17:14:42;;;;;;;1.45;1.20;;;;;;;31.15;28.86;101065.10;5055414;57;1138536;-66
2023/07/09 17:19:49;;;;;;;0.90;0.90;;;;;;;31.04;29.07;101061.27;5036346;56;1138939;-66
2023/07/09 17:24:54;;;;;;;6.30;1.32;;;;;;;30.95;29.06;101059.45;5043950;56;1138551;-64
2023/07/09 17:30:00;;;;;;;2.62;0.72;;;;;;;30.85;29.43;101066.61;5068986;56;1138671;-64
2023/07/09 17:35:06;;;;;;;4.80;1.37;;;;;;;30.74;29.38;101075.09;5049103;57;1138837;-65
2023/07/09 17:40:28;;;;;;;4.37;1.07;;;;;;;30.66;29.31;101070.00;5048959;57;1139389;-65
2023/07/09 17:45:33;;;;;;;3.65;1.07;;;;;;;30.62;29.35;101062.81;5048876;57;1138740;-64
2023/07/09 17:50:39;;;;;;;1.95;1.15;;;;;;;30.50;29.05;101060.59;5138139;56;1138959;-64
2023/07/09 17:55:45;;;;;;;3.77;1.15;;;;;;;30.33;29.55;101054.17;5133456;56;1138742;-64
2023/07/09 18:00:52;;;;;;;6.10;1.00;;;;;;;30.20;29.92;101051.14;5066210;56;1139016;-66
2023/07/09 18:05:58;;;;;;;4.05;1.00;;;;;;;30.13;30.32;101055.86;4987350;57;1138819;-64
2023/07/09 18:11:04;;;;;;;13.72;3.47;;;;;;;29.94;30.73;101054.27;5037113;57;1139002;-64
2023/07/09 18:16:11;;;;;;;10.37;1.70;;;;;;;29.77;32.99;101055.46;5049545;56;1141045;-65
2023/07/09 18:21:16;;;;;;;4.63;1.90;;;;;;;29.56;33.28;101047.25;5050037;56;1140903;-64
2023/07/09 18:26:23;;;;;;;7.37;1.30;;;;;;;29.37;33.51;101037.41;5063558;56;1139152;-65
2023/07/09 18:31:28;;;;;;;1.40;1.30;;;;;;;29.13;34.12;101032.92;5036171;57;1139100;-64
2023/07/09 18:36:34;;;;;;;3.25;1.22;;;;;;;28.97;34.39;101036.56;5036352;57;1138876;-66
2023/07/09 18:41:40;;;;;;;11.97;1.62;;;;;;;28.87;35.31;101029.99;5056182;57;1138863;-64
2023/07/09 18:46:47;;;;;;;2.42;1.50;;;;;;;28.91;35.47;101031.17;5036061;56;1141040;-64
2023/07/09 18:51:53;;;;;;;6.62;1.87;;;;;;;28.96;35.94;101034.06;5017486;57;1138789;-65
2023/07/09 18:56:58;;;;;;;2.70;1.90;;;;;;;28.92;36.29;101036.93;5056324;57;1138801;-65
2023/07/09 19:02:06;;;;;;;7.90;2.33;;;;;;;28.79;36.85;101029.75;5036768;57;1138895;-63
2023/07/09 19:07:15;;;;;;;17.47;4.40;;;;;;;28.71;38.08;101034.11;5035747;57;1138782;-64
2023/07/09 19:12:20;;;;;;;9.58;3.25;;;;;;;28.44;39.30;101043.57;5036328;57;1141161;-64
2023/07/09 19:17:29;;;;;;;14.13;3.35;;;;;;;28.26;40.81;101045.74;5056394;56;1138930;-64
2023/07/09 19:22:34;;;;;;;19.55;3.58;;;;;;;28.21;41.68;101057.80;5036000;56;1140816;-64
2023/07/09 19:27:40;;;;;;;18.85;3.62;;;;;;;28.13;42.50;101063.47;5028271;57;1141028;-65
2023/07/09 19:32:50;;;;;;;37.40;5.83;;;;;;;28.02;43.14;101077.27;4992873;57;1141009;-64
2023/07/09 19:37:57;;;;;;;22.00;6.58;;;;;;;27.89;44.31;101082.27;4996369;57;1141296;-67
2023/07/09 19:43:02;;;;;;;6.80;3.83;;;;;;;27.77;44.01;101080.47;4981459;56;1141034;-65
2023/07/09 19:48:15;;;;;;;11.48;4.33;;;;;;;27.41;43.76;101075.08;4967983;56;1139093;-67
2023/07/09 19:53:30;;;;;;;18.12;4.35;;;;;;;27.06;45.10;101076.45;5013426;56;1141112;-64
2023/07/09 19:58:31;;;;;;;10.53;4.97;;;;;;;26.98;46.32;101078.89;4972293;56;1140780;-65
2023/07/09 20:03:38;;;;;;;25.60;15.43;;;;;;;26.78;46.69;101076.70;4967502;56;1140727;-65
2023/07/09 20:08:43;;;;;;;26.20;9.40;;;;;;;26.63;47.54;101080.48;4986590;56;1142988;-65
2023/07/09 20:13:49;;;;;;;14.43;5.65;;;;;;;26.54;48.36;101081.75;4967422;56;1141006;-65
2023/07/09 20:18:56;;;;;;;18.75;4.83;;;;;;;26.45;49.15;101080.28;5031265;55;1140868;-65
2023/07/09 20:24:04;;;;;;;8.66;4.04;;;;;;;26.38;49.79;101069.97;5049046;56;1140850;-65
2023/07/09 20:29:18;;;;;;;16.53;5.33;;;;;;;26.02;49.88;101070.84;5028792;57;1138926;-64
2023/07/09 20:34:25;;;;;;;24.10;4.92;;;;;;;25.68;50.47;101068.58;4962418;54;1141204;-65
2023/07/09 20:39:31;;;;;;;20.50;5.47;;;;;;;25.59;51.47;101080.11;5017318;55;1141169;-66
2023/07/09 20:44:38;;;;;;;12.40;5.60;;;;;;;25.16;52.03;101082.23;4991063;56;1140956;-64
2023/07/09 20:49:44;;;;;;;4.08;3.55;;;;;;;25.01;53.19;101084.75;4996677;56;1141198;-65
2023/07/09 20:54:50;;;;;;;6.08;2.85;;;;;;;25.13;53.43;101088.55;5018195;56;1139092;-65
2023/07/09 20:59:55;;;;;;;6.12;3.52;;;;;;;25.12;52.44;101095.00;4990558;56;1138738;-64
2023/07/09 21:05:01;;;;;;;3.50;3.20;;;;;;;24.89;53.18;101099.33;4988522;57;1138663;-65
2023/07/09 21:10:09;;;;;;;2.55;2.35;;;;;;;24.47;54.67;101095.67;4988174;57;1138759;-64
2023/07/09 21:15:15;;;;;;;1.90;1.80;;;;;;;24.31;55.80;101091.05;4994753;57;1138610;-65
2023/07/09 21:20:22;;;;;;;2.30;1.80;;;;;;;24.19;57.33;101088.84;5035848;56;1138694;-65
2023/07/09 21:25:28;;;;;;;6.03;2.00;;;;;;;23.91;58.31;101087.95;5055237;57;1138734;-66
2023/07/09 21:30:34;;;;;;;2.75;2.25;;;;;;;23.66;59.07;101090.70;5029757;57;1139074;-64
2023/07/09 21:35:41;;;;;;;4.47;1.98;;;;;;;23.59;59.46;101097.36;4913456;56;1138935;-64
2023/07/09 21:40:47;;;;;;;3.15;1.80;;;;;;;23.58;60.06;101102.44;4915282;57;1138922;-64
2023/07/09 21:45:55;;;;;;;1.80;1.70;;;;;;;23.58;59.94;101106.48;4896594;57;1138795;-66
2023/07/09 21:51:00;;;;;;;6.05;2.22;;;;;;;23.64;60.09;101120.59;4896153;57;1138716;-64
2023/07/09 21:56:11;;;;;;;2.62;1.72;;;;;;;23.71;60.08;101109.34;4915418;57;1138869;-65
2023/07/09 22:01:19;;;;;;;3.20;2.60;;;;;;;23.76;60.25;101115.53;4896254;57;1138683;-65
2023/07/09 22:06:25;;;;;;;4.75;2.42;;;;;;;23.69;60.31;101110.04;4895047;57;1138616;-65
2023/07/09 22:11:31;;;;;;;5.65;2.67;;;;;;;23.65;60.68;101106.06;4915082;57;1138573;-65
2023/07/09 22:16:37;;;;;;;3.10;2.65;;;;;;;23.59;60.65;101101.41;4895989;58;1138533;-64
2023/07/09 22:21:44;;;;;;;3.08;2.85;;;;;;;23.46;60.42;101094.47;4896078;57;1138749;-64
2023/07/09 22:26:50;;;;;;;5.17;2.30;;;;;;;23.23;60.61;101084.30;4915136;57;1138782;-65
2023/07/09 22:31:56;;;;;;;3.47;2.52;;;;;;;23.15;61.44;101083.90;4895435;57;1138882;-64
2023/07/09 22:37:02;;;;;;;1.92;1.85;;;;;;;23.04;61.63;101083.03;4996807;57;1139000;-64
2023/07/09 22:42:09;;;;;;;1.76;1.66;;;;;;;22.96;62.17;101077.20;5011937;57;1139262;-67
2023/07/09 22:47:21;;;;;;;1.90;1.90;;;;;;;22.75;62.75;101067.65;5024925;57;1138933;-64
2023/07/09 22:52:27;;;;;;;8.50;2.85;;;;;;;22.75;62.75;101067.65;5029752;57;1138441;-66
2023/07/09 22:57:32;;;;;;;1.95;1.80;;;;;;;22.78;63.48;101082.12;5029388;57;1138910;-65
2023/07/09 23:02:38;;;;;;;2.08;1.90;;;;;;;22.76;63.95;101074.20;5049568;57;1139083;-65
2023/07/09 23:07:45;;;;;;;2.90;2.30;;;;;;;22.66;63.69;101072.78;5028420;57;1138679;-66
2023/07/09 23:12:51;;;;;;;2.37;2.17;;;;;;;22.50;63.52;101073.77;5025145;57;1138700;-65
2023/07/09 23:17:57;;;;;;;2.20;2.00;;;;;;;22.39;63.76;101073.72;5047796;57;1138704;-65
2023/07/09 23:23:03;;;;;;;4.20;2.33;;;;;;;22.38;63.65;101072.03;5010646;56;1139117;-63
2023/07/09 23:28:11;;;;;;;8.00;2.22;;;;;;;22.42;63.71;101067.97;5030446;56;1138771;-65
2023/07/09 23:33:30;;;;;;;2.83;2.60;;;;;;;22.31;62.71;101072.42;5020669;55;1138613;-65
2023/07/09 23:38:35;;;;;;;3.57;2.47;;;;;;;21.98;62.46;101071.84;5020178;57;1138660;-65
2023/07/09 23:43:42;;;;;;;2.80;2.55;;;;;;;21.86;63.36;101073.76;5000621;57;1138794;-65
2023/07/09 23:48:48;;;;;;;2.83;2.60;;;;;;;21.92;63.66;101079.28;5030136;57;1138752;-65
2023/07/09 23:53:54;;;;;;;2.40;2.25;;;;;;;22.00;63.57;101067.63;5049687;57;1138922;-65
2023/07/09 23:59:01;;;;;;;2.20;2.00;;;;;;;21.99;63.27;101060.56;5029371;57;1138843;-65
